Time;durP1;ratioP1;P1;durP2;ratioP2;P2;SDS_P1;SDS_P2;PMS_P1;PMS_P2;Temp;Humidity;BMP_temperature;BMP_pressure;BME280_temperature;BME280_humidity;BME280_pressure;Samples;Min_cycle;Max_cycle;Signal;HPM_P1;HPM_P2
2023/06/12 00:02:21;;;;;;;9.80;6.00;;;;;;;16.98;76.51;98805.88;5030350;28;20032;-92
2023/06/12 00:04:46;;;;;;;10.63;6.35;;;;;;;16.98;75.87;98805.88;5027930;28;20486;-92
2023/06/12 00:07:12;;;;;;;9.73;6.38;;;;;;;16.91;75.72;98791.97;5027839;28;20032;-92
2023/06/12 00:09:38;;;;;;;11.70;5.88;;;;;;;16.91;76.17;98798.22;5027916;28;20032;-92
2023/06/12 00:12:03;;;;;;;9.93;6.07;;;;;;;16.83;76.05;98793.63;5013920;28;20059;-93
2023/06/12 00:14:29;;;;;;;11.52;5.53;;;;;;;16.82;76.43;98792.00;5021292;28;20174;-92
2023/06/12 00:16:54;;;;;;;8.63;5.28;;;;;;;16.82;75.70;98800.16;5028321;28;20029;-92
2023/06/12 00:19:21;;;;;;;8.77;5.40;;;;;;;16.71;76.05;98802.41;5027493;28;20048;-91
2023/06/12 00:21:47;;;;;;;9.10;5.60;;;;;;;16.59;76.08;98790.59;5043732;28;20040;-92
2023/06/12 00:24:12;;;;;;;8.35;5.68;;;;;;;16.65;76.14;98809.13;5024185;28;20040;-92
2023/06/12 00:26:38;;;;;;;8.32;5.43;;;;;;;16.53;76.20;98800.84;5006896;28;20029;-93
2023/06/12 00:29:03;;;;;;;10.57;5.18;;;;;;;16.50;76.47;98801.50;5007795;28;20056;-93
2023/06/12 00:31:29;;;;;;;8.23;5.22;;;;;;;16.47;76.77;98796.69;5010691;28;20487;-92
2023/06/12 00:33:54;;;;;;;8.38;5.30;;;;;;;16.49;76.43;98797.94;5024158;28;20112;-92
2023/06/12 00:36:20;;;;;;;7.25;4.55;;;;;;;16.44;76.47;98797.34;5018700;28;20025;-92
2023/06/12 00:38:45;;;;;;;7.07;5.20;;;;;;;16.43;76.67;98782.94;5019485;28;20094;-92
2023/06/12 00:41:11;;;;;;;10.73;4.97;;;;;;;16.45;76.29;98788.84;5007019;28;20095;-93
2023/06/12 00:43:36;;;;;;;6.93;5.00;;;;;;;16.38;76.41;98799.41;5007190;28;20028;-92
2023/06/12 00:46:02;;;;;;;6.15;5.10;;;;;;;16.39;76.52;98803.72;5007930;28;20384;-92
2023/06/12 00:48:27;;;;;;;8.50;4.65;;;;;;;16.38;76.32;98807.56;5007407;28;20028;-91
2023/06/12 00:50:56;;;;;;;6.53;4.80;;;;;;;16.40;76.13;98801.81;5005614;28;20033;-92
2023/06/12 00:53:21;;;;;;;9.88;4.95;;;;;;;16.38;75.91;98807.56;5008155;28;20025;-92
2023/06/12 00:55:47;;;;;;;8.52;5.00;;;;;;;16.32;76.21;98804.19;5007449;28;20032;-92
2023/06/12 00:58:12;;;;;;;7.80;5.03;;;;;;;16.26;76.08;98819.06;5006854;28;20021;-92
2023/06/12 01:00:38;;;;;;;8.85;5.30;;;;;;;16.21;76.36;98802.94;5007786;28;20024;-92
2023/06/12 01:03:06;;;;;;;11.40;5.80;;;;;;;16.43;75.95;98801.16;5007154;28;20086;-92
2023/06/12 01:05:35;;;;;;;9.18;5.30;;;;;;;16.27;76.51;98801.66;5007742;28;20024;-92
2023/06/12 01:08:07;;;;;;;11.00;6.13;;;;;;;16.36;76.13;98816.03;5007878;28;20032;-92
2023/06/12 01:11:02;;;;;;;10.98;6.43;;;;;;;16.31;76.96;98831.69;5023180;28;20125;-92
2023/06/12 01:13:28;;;;;;;13.07;7.93;;;;;;;16.25;76.87;98828.34;5009479;28;20068;-92
2023/06/12 01:15:53;;;;;;;11.93;7.07;;;;;;;16.19;77.02;98835.06;5006505;28;20544;-92
2023/06/12 01:18:21;;;;;;;15.77;7.47;;;;;;;16.12;77.32;98821.13;5007205;28;20446;-93
2023/06/12 01:20:47;;;;;;;15.40;6.80;;;;;;;16.20;77.31;98830.41;5007274;28;20032;-92
2023/06/12 01:23:20;;;;;;;11.15;6.07;;;;;;;16.16;77.05;98833.78;5006411;28;20376;-92
2023/06/12 01:26:07;;;;;;;10.63;6.28;;;;;;;16.07;77.17;98818.59;5008912;28;20501;-92
2023/06/12 01:29:01;;;;;;;17.02;7.68;;;;;;;16.10;77.48;98831.50;5040379;28;20032;-92
2023/06/12 01:31:31;;;;;;;10.35;6.38;;;;;;;16.02;77.22;98832.31;5051106;28;20498;-92
2023/06/12 01:34:12;;;;;;;15.18;6.63;;;;;;;16.00;77.26;98826.41;5033690;28;20016;-92
2023/06/12 01:36:39;;;;;;;11.82;6.32;;;;;;;15.89;77.38;98826.69;5032868;28;20021;-92
2023/06/12 01:39:05;;;;;;;11.55;6.22;;;;;;;15.86;77.70;98827.34;5030769;28;20025;-92
2023/06/12 01:41:30;;;;;;;11.07;6.38;;;;;;;15.80;78.07;98839.47;5018909;28;20460;-92
2023/06/12 01:43:56;;;;;;;15.10;7.35;;;;;;;15.72;78.41;98830.19;5026705;28;20024;-92
2023/06/12 01:46:21;;;;;;;16.42;7.20;;;;;;;15.78;78.20;98836.28;5025507;28;20035;-92
2023/06/12 01:48:47;;;;;;;16.08;6.20;;;;;;;15.73;78.23;98837.22;5026097;28;20024;-93
2023/06/12 01:51:12;;;;;;;14.98;6.70;;;;;;;15.82;78.01;98845.38;5025467;28;20490;-92
2023/06/12 01:53:39;;;;;;;11.05;6.25;;;;;;;15.80;78.23;98853.03;5026041;28;20017;-92
2023/06/12 01:56:05;;;;;;;16.55;6.70;;;;;;;15.80;78.25;98853.03;5026732;28;20009;-92
2023/06/12 01:58:30;;;;;;;12.77;6.57;;;;;;;15.71;78.49;98844.84;5026129;28;20074;-92
2023/06/12 02:00:57;;;;;;;12.13;6.45;;;;;;;15.76;78.40;98854.78;5026401;28;20020;-92
2023/06/12 02:03:22;;;;;;;11.23;6.53;;;;;;;15.76;78.05;98855.56;5025235;28;20039;-92
2023/06/12 02:05:49;;;;;;;11.23;6.80;;;;;;;15.71;78.08;98853.00;5029215;28;20016;-92
2023/06/12 02:08:14;;;;;;;14.57;7.10;;;;;;;15.69;78.06;98857.94;5045922;28;20370;-92
2023/06/12 02:10:40;;;;;;;13.50;7.03;;;;;;;15.64;78.44;98852.63;5040889;28;20024;-92
2023/06/12 02:13:05;;;;;;;16.98;7.13;;;;;;;15.60;78.29;98846.25;5026222;28;20033;-93
2023/06/12 02:15:31;;;;;;;16.10;7.18;;;;;;;15.61;78.81;98857.91;5044090;28;20024;-92
2023/06/12 02:17:57;;;;;;;10.50;7.00;;;;;;;15.55;78.86;98839.03;5041449;28;20025;-92
2023/06/12 02:20:22;;;;;;;13.82;7.30;;;;;;;15.54;79.35;98859.16;5024615;28;20035;-92
2023/06/12 02:22:48;;;;;;;17.05;8.05;;;;;;;15.56;79.30;98853.41;5005385;28;20034;-92
2023/06/12 02:25:13;;;;;;;14.95;7.72;;;;;;;15.53;79.50;98854.06;5040043;28;20036;-92
2023/06/12 02:27:39;;;;;;;19.50;7.88;;;;;;;15.63;79.16;98863.84;5044406;28;20027;-92
2023/06/12 02:30:06;;;;;;;25.98;9.20;;;;;;;15.57;79.04;98855.03;5040572;28;20060;-92
2023/06/12 02:32:34;;;;;;;20.38;8.68;;;;;;;15.52;78.98;98863.28;5040168;28;20021;-92
2023/06/12 02:35:00;;;;;;;23.60;9.60;;;;;;;15.60;79.19;98856.31;5024660;28;20016;-92
2023/06/12 02:37:27;;;;;;;23.05;10.93;;;;;;;15.72;78.76;98881.75;5024264;28;20020;-92
2023/06/12 02:39:53;;;;;;;22.13;9.80;;;;;;;15.77;79.07;98878.09;5025361;28;20058;-92
2023/06/12 02:42:18;;;;;;;20.88;9.27;;;;;;;15.67;79.06;98879.16;5025171;28;20020;-92
2023/06/12 02:44:45;;;;;;;17.40;8.10;;;;;;;15.64;78.98;98879.78;5025162;28;20094;-92
2023/06/12 02:47:10;;;;;;;19.65;8.25;;;;;;;15.61;78.85;98887.78;5026112;28;20548;-93
2023/06/12 02:49:37;;;;;;;16.90;7.45;;;;;;;15.46;78.65;98880.81;5026300;28;20024;-92
2023/06/12 02:52:03;;;;;;;15.82;7.68;;;;;;;15.40;78.97;98874.75;5026087;28;20020;-92
2023/06/12 02:54:29;;;;;;;19.10;7.85;;;;;;;15.45;78.64;98884.66;5042118;28;20042;-92
2023/06/12 02:56:55;;;;;;;16.95;6.82;;;;;;;15.53;78.26;98897.47;5024817;28;20059;-92
2023/06/12 02:59:22;;;;;;;19.73;7.30;;;;;;;15.55;77.90;98893.31;5025185;28;20024;-92
2023/06/12 03:01:47;;;;;;;18.17;7.22;;;;;;;15.52;77.90;98893.97;5025173;28;20028;-92
2023/06/12 03:04:15;;;;;;;11.05;6.80;;;;;;;15.52;78.22;98902.09;5024860;28;20016;-93
2023/06/12 03:06:41;;;;;;;13.15;7.43;;;;;;;15.48;78.05;98892.16;5025252;28;20024;-91
2023/06/12 03:09:08;;;;;;;16.27;6.88;;;;;;;15.43;78.38;98898.53;5024726;28;20051;-93
2023/06/12 03:11:35;;;;;;;17.30;7.80;;;;;;;15.41;78.45;98898.03;5027122;28;20017;-92
2023/06/12 03:14:00;;;;;;;23.90;7.28;;;;;;;15.51;78.52;98913.25;5025692;28;20429;-91
2023/06/12 03:16:26;;;;;;;13.27;7.18;;;;;;;15.52;77.88;98915.66;5025483;28;20021;-92
2023/06/12 03:18:52;;;;;;;15.20;7.03;;;;;;;15.68;77.63;98918.75;5042245;28;20257;-92
2023/06/12 03:21:17;;;;;;;13.70;6.40;;;;;;;15.68;77.32;98918.75;5041543;28;20028;-92
2023/06/12 03:23:43;;;;;;;16.10;7.00;;;;;;;15.68;77.61;98913.31;5025104;28;20023;-91
2023/06/12 03:26:09;;;;;;;17.08;7.20;;;;;;;15.72;77.57;98922.47;5025222;28;20024;-92
2023/06/12 03:28:35;;;;;;;18.17;8.15;;;;;;;15.64;77.70;98914.25;5024889;28;20039;-91
2023/06/12 03:31:00;;;;;;;14.77;7.43;;;;;;;15.67;77.79;98916.38;5024082;28;20032;-92
2023/06/12 03:33:26;;;;;;;14.55;7.45;;;;;;;15.66;77.55;98909.31;5024858;28;20021;-92
2023/06/12 03:35:52;;;;;;;18.95;7.25;;;;;;;15.81;77.56;98927.13;5027156;28;20024;-90
2023/06/12 03:38:17;;;;;;;18.65;7.72;;;;;;;15.67;77.96;98910.94;5028919;28;20024;-91
2023/06/12 03:40:43;;;;;;;21.00;8.65;;;;;;;15.65;78.21;98907.75;5037890;28;20509;-91
2023/06/12 03:43:08;;;;;;;127.90;16.98;;;;;;;15.53;79.15;98919.97;5042927;28;20479;-91
2023/06/12 03:45:34;;;;;;;17.88;9.07;;;;;;;15.56;78.88;98919.34;5028104;28;20024;-91
2023/06/12 03:47:59;;;;;;;17.50;8.52;;;;;;;15.52;79.11;98906.69;5027988;28;20044;-91
2023/06/12 03:50:25;;;;;;;25.05;9.48;;;;;;;15.61;79.14;98910.28;5029468;28;20548;-91
2023/06/12 03:52:51;;;;;;;25.77;10.15;;;;;;;15.67;78.81;98894.66;5047522;28;20413;-91
2023/06/12 03:55:16;;;;;;;22.33;10.48;;;;;;;15.83;78.44;98906.69;5044596;28;20024;-91
2023/06/12 03:57:42;;;;;;;20.25;8.65;;;;;;;15.84;77.98;98904.81;5015244;28;20032;-91
2023/06/12 04:00:08;;;;;;;24.83;9.82;;;;;;;15.94;77.82;98905.31;5027163;28;20029;-91
2023/06/12 04:02:34;;;;;;;22.23;9.95;;;;;;;16.06;77.39;98909.31;5041835;28;20028;-92
2023/06/12 04:05:00;;;;;;;26.90;10.73;;;;;;;15.98;77.52;98899.22;5022950;28;20027;-92
2023/06/12 04:07:26;;;;;;;20.08;9.38;;;;;;;16.01;77.78;98904.03;5044667;28;20029;-92
2023/06/12 04:09:51;;;;;;;23.38;9.40;;;;;;;16.29;77.27;98918.13;5042577;28;20056;-91
2023/06/12 04:12:17;;;;;;;28.30;10.52;;;;;;;16.47;76.37;98911.59;5009724;28;20491;-91
2023/06/12 04:14:43;;;;;;;21.58;10.00;;;;;;;16.49;76.02;98912.09;5018616;28;20032;-90
2023/06/12 04:17:08;;;;;;;24.88;9.60;;;;;;;16.62;75.63;98915.78;5023810;28;20025;-91
2023/06/12 04:19:35;;;;;;;23.92;11.40;;;;;;;16.68;75.56;98916.41;5008030;28;20024;-91
2023/06/12 04:22:01;;;;;;;22.08;10.15;;;;;;;16.87;75.33;98918.84;5025162;28;20028;-92
2023/06/12 04:24:30;;;;;;;17.35;9.05;;;;;;;17.03;74.23;98919.94;5007924;28;20031;-93
2023/06/12 04:27:00;;;;;;;21.05;9.13;;;;;;;17.21;73.32;98923.44;5025752;28;20033;-92
2023/06/12 04:29:28;;;;;;;21.02;9.45;;;;;;;17.21;74.07;98928.09;5010481;28;20045;-92
2023/06/12 04:31:58;;;;;;;19.17;9.07;;;;;;;17.23;74.27;98926.63;5008801;28;20395;-94
2023/06/12 04:34:24;;;;;;;24.75;9.65;;;;;;;17.27;74.00;98926.78;5013746;28;20463;-93
2023/06/12 04:36:52;;;;;;;12.38;7.03;;;;;;;17.38;73.10;98934.25;5007967;28;20021;-95
2023/06/12 04:39:19;;;;;;;18.52;11.13;;;;;;;17.28;73.13;98917.50;5014558;28;20079;-93
2023/06/12 04:41:47;;;;;;;27.35;11.90;;;;;;;17.32;73.67;98924.69;5015248;28;20025;-92
2023/06/12 04:44:13;;;;;;;12.40;7.00;;;;;;;17.57;72.47;98924.94;5040576;28;20028;-95
2023/06/12 04:46:40;;;;;;;13.65;7.57;;;;;;;17.78;71.26;98925.00;5053418;28;20140;-94
2023/06/12 04:49:05;;;;;;;13.48;7.88;;;;;;;17.73;72.02;98922.47;5013646;28;20025;-96
2023/06/12 04:51:31;;;;;;;17.83;8.15;;;;;;;17.75;71.21;98912.03;5028670;28;20021;-94
2023/06/12 04:53:57;;;;;;;11.15;6.68;;;;;;;17.93;70.98;98926.44;5069842;28;20004;-95
2023/06/12 04:56:22;;;;;;;12.05;7.25;;;;;;;18.00;70.99;98909.56;5064992;28;20032;-93
2023/06/12 04:58:49;;;;;;;10.63;6.78;;;;;;;17.93;71.80;98901.91;5028914;28;20043;-94
2023/06/12 05:01:19;;;;;;;14.05;6.50;;;;;;;17.98;71.50;98915.31;5030918;28;20025;-94
2023/06/12 05:03:46;;;;;;;12.82;5.88;;;;;;;18.09;71.10;98910.28;5029311;28;20103;-95
2023/06/12 05:06:12;;;;;;;14.32;7.53;;;;;;;18.17;71.33;98917.63;5031469;28;20032;-94
2023/06/12 05:08:38;;;;;;;12.15;6.38;;;;;;;18.28;71.33;98932.47;5033290;28;20039;-94
2023/06/12 05:11:04;;;;;;;14.27;7.70;;;;;;;18.16;71.34;98907.84;5030012;28;20095;-94
2023/06/12 05:13:30;;;;;;;14.40;7.18;;;;;;;18.19;71.77;98918.09;5030793;28;20021;-95
2023/06/12 05:16:06;;;;;;;16.73;7.22;;;;;;;18.35;71.89;98938.19;5031031;28;20020;-95
2023/06/12 05:18:31;;;;;;;10.80;6.95;;;;;;;18.23;71.59;98905.41;5032975;28;20108;-95
2023/06/12 05:21:33;;;;;;;15.52;7.03;;;;;;;18.47;71.66;98912.13;5032454;28;20475;-94
2023/06/12 05:23:59;;;;;;;11.63;8.55;;;;;;;18.36;71.50;98896.19;5038544;28;20037;-94
2023/06/12 05:26:25;;;;;;;12.57;6.68;;;;;;;18.53;71.45;98918.97;5032634;28;20052;-94
2023/06/12 05:28:50;;;;;;;10.88;6.82;;;;;;;18.57;71.22;98900.81;5030398;28;20033;-95
2023/06/12 05:31:17;;;;;;;12.77;6.68;;;;;;;18.55;70.80;98906.63;5033553;28;20032;-93
2023/06/12 05:33:44;;;;;;;7.65;6.07;;;;;;;18.89;69.89;98906.69;5053306;28;20445;-95
2023/06/12 05:36:11;;;;;;;7.57;5.57;;;;;;;19.12;69.43;98921.53;5031259;28;20020;-95
2023/06/12 05:45:52;;;;;;;17.02;5.65;;;;;;;19.80;67.38;98928.53;5082397;28;20040;-96
2023/06/12 05:51:41;;;;;;;9.50;6.07;;;;;;;20.18;65.35;98930.09;5082129;28;20062;-94
2023/06/12 05:54:11;;;;;;;9.18;6.03;;;;;;;20.43;65.18;98919.13;5029582;28;20040;-94
2023/06/12 05:56:38;;;;;;;14.57;7.60;;;;;;;20.59;64.46;98912.63;5079999;28;20075;-91
2023/06/12 05:59:04;;;;;;;8.68;6.25;;;;;;;20.89;63.13;98906.00;5031302;28;20025;-91
2023/06/12 06:01:31;;;;;;;10.38;6.32;;;;;;;21.06;62.50;98900.22;5034578;28;20107;-89
2023/06/12 06:04:02;;;;;;;15.75;6.35;;;;;;;21.04;62.64;98899.78;5026998;28;20083;-90
2023/06/12 06:06:30;;;;;;;7.10;5.90;;;;;;;21.07;61.96;98890.09;5032359;28;20033;-88
2023/06/12 06:08:56;;;;;;;8.95;6.47;;;;;;;21.17;61.37;98903.25;5000023;28;20043;-90
2023/06/12 06:11:22;;;;;;;9.90;5.28;;;;;;;21.36;61.50;98919.78;5019519;28;20045;-90
2023/06/12 06:13:47;;;;;;;11.15;5.70;;;;;;;21.50;60.59;98904.91;5024308;28;20196;-93
2023/06/12 06:16:13;;;;;;;7.47;5.63;;;;;;;21.62;59.77;98895.81;5008825;28;20032;-92
2023/06/12 06:18:46;;;;;;;11.00;5.50;;;;;;;21.67;60.03;98923.75;5009197;28;20055;-91
2023/06/12 06:21:12;;;;;;;13.10;6.00;;;;;;;21.49;60.44;98904.09;5012639;28;20045;-87
2023/06/12 06:23:37;;;;;;;10.00;7.00;;;;;;;21.45;60.38;98907.91;5008150;28;20067;-86
2023/06/12 06:26:06;;;;;;;6.72;5.30;;;;;;;21.37;60.27;98896.75;5003564;28;20041;-88
2023/06/12 06:28:31;;;;;;;7.18;5.20;;;;;;;21.62;60.59;98923.19;5013712;28;20037;-88
2023/06/12 06:31:06;;;;;;;5.93;4.57;;;;;;;21.58;60.48;98921.19;5019952;28;20396;-86
2023/06/12 06:33:32;;;;;;;6.95;4.43;;;;;;;21.61;60.55;98919.66;5005936;28;20145;-86
2023/06/12 06:35:58;;;;;;;5.47;4.82;;;;;;;21.70;60.48;98916.75;5024072;28;20522;-86
2023/06/12 06:38:46;;;;;;;11.23;5.68;;;;;;;21.58;60.19;98899.25;5022075;28;20040;-87
2023/06/12 06:41:12;;;;;;;9.43;4.72;;;;;;;21.63;60.24;98898.19;5040347;28;20032;-88
2023/06/12 06:43:37;;;;;;;7.70;4.10;;;;;;;21.79;59.51;98911.91;5030379;28;20035;-89
2023/06/12 06:46:04;;;;;;;5.60;3.97;;;;;;;21.95;59.93;98907.16;5046699;28;20020;-88
2023/06/12 06:48:30;;;;;;;8.73;4.60;;;;;;;22.04;59.08;98889.72;5030223;28;20019;-88
2023/06/12 06:51:22;;;;;;;7.28;5.00;;;;;;;22.27;58.45;98871.50;5038948;28;20036;-87
2023/06/12 06:53:50;;;;;;;;;;;;;;;22.64;58.61;98914.19;5026763;28;20040;-87
2023/06/12 06:56:16;;;;;;;9.40;4.30;;;;;;;22.47;58.40;98894.25;5030593;28;20374;-87
2023/06/12 06:58:52;;;;;;;9.98;4.35;;;;;;;22.55;57.29;98895.97;5023977;28;20032;-87
2023/06/12 07:01:18;;;;;;;10.43;4.70;;;;;;;22.87;57.15;98911.50;5038463;28;20029;-90
2023/06/12 07:03:43;;;;;;;8.27;4.97;;;;;;;22.86;57.48;98907.97;5035630;28;20032;-88
2023/06/12 07:06:09;;;;;;;9.93;4.65;;;;;;;22.94;57.24;98917.16;5034148;28;20033;-89
2023/06/12 07:08:35;;;;;;;14.50;7.82;;;;;;;22.91;56.79;98909.63;5020506;28;20029;-89
2023/06/12 07:11:20;;;;;;;6.95;4.53;;;;;;;23.45;55.98;98932.63;5023692;28;20037;-88
2023/06/12 07:14:08;;;;;;;5.78;4.57;;;;;;;23.52;55.15;98906.06;5042520;28;20450;-87
2023/06/12 07:16:56;;;;;;;9.95;5.05;;;;;;;23.84;53.75;98927.81;5022398;28;20065;-88
2023/06/12 07:19:22;;;;;;;11.95;6.10;;;;;;;23.82;54.49;98927.41;5022692;28;20092;-88
2023/06/12 07:22:11;;;;;;;9.43;4.70;;;;;;;23.77;54.47;98922.22;4993837;28;20068;-88
2023/06/12 07:24:50;;;;;;;8.05;5.55;;;;;;;23.67;54.65;98918.09;5011926;28;20060;-88
2023/06/12 07:27:19;;;;;;;10.15;5.32;;;;;;;23.64;54.75;98909.78;5025708;28;20057;-90
2023/06/12 07:29:45;;;;;;;10.25;5.63;;;;;;;23.26;55.38;98892.25;5008053;28;20045;-90
2023/06/12 07:32:11;;;;;;;8.40;5.60;;;;;;;23.56;55.21;98898.69;5006696;28;20112;-89
2023/06/12 07:34:45;;;;;;;12.43;6.00;;;;;;;23.69;54.51;98902.03;5024214;28;20044;-91
2023/06/12 07:37:12;;;;;;;11.02;6.32;;;;;;;23.74;54.09;98917.41;4992967;28;20033;-91
2023/06/12 07:39:39;;;;;;;9.52;5.85;;;;;;;23.64;54.38;98898.78;5010356;28;20124;-87
2023/06/12 07:42:06;;;;;;;8.80;6.13;;;;;;;23.65;54.73;98901.19;5013091;28;20037;-87
2023/06/12 07:44:31;;;;;;;13.48;6.07;;;;;;;23.80;53.77;98892.03;5025576;28;20029;-86
2023/06/12 07:46:58;;;;;;;12.13;6.68;;;;;;;23.70;54.35;98927.56;5027149;28;20037;-87
2023/06/12 07:50:20;;;;;;;11.18;6.43;;;;;;;23.98;54.05;98922.56;5038900;28;20020;-93
2023/06/12 07:52:48;;;;;;;17.85;8.52;;;;;;;23.70;53.96;98897.31;5027017;28;20029;-96
2023/06/12 07:55:14;;;;;;;15.27;6.88;;;;;;;23.93;53.85;98922.09;5032924;28;20031;-93
2023/06/12 07:57:56;;;;;;;12.23;7.85;;;;;;;23.67;54.37;98898.06;5039945;28;20063;-92
2023/06/12 08:00:35;;;;;;;11.75;5.25;;;;;;;23.79;54.01;98904.19;5033770;28;20025;-91
2023/06/12 08:03:09;;;;;;;9.00;5.63;;;;;;;23.77;53.78;98911.22;5025332;28;20376;-93
2023/06/12 08:05:35;;;;;;;7.57;5.45;;;;;;;23.72;53.73;98890.31;5014517;28;20044;-92
2023/06/12 08:08:01;;;;;;;13.25;10.52;;;;;;;23.38;54.78;98889.34;5014816;28;20483;-93
2023/06/12 08:10:31;;;;;;;8.85;5.60;;;;;;;23.41;55.05;98885.88;5048796;28;20091;-93
2023/06/12 08:12:56;;;;;;;9.40;6.68;;;;;;;23.77;54.55;98920.25;5015176;28;20089;-94
2023/06/12 08:15:26;;;;;;;9.85;6.97;;;;;;;23.83;53.04;98887.75;5016310;28;20556;-93
2023/06/12 08:18:35;;;;;;;8.25;5.47;;;;;;;24.14;52.37;98883.09;5009747;28;20030;-94
2023/06/12 08:21:01;;;;;;;8.52;5.88;;;;;;;24.32;51.99;98892.41;4988958;28;20040;-93
2023/06/12 08:23:29;;;;;;;10.23;6.03;;;;;;;24.12;51.79;98899.97;4999774;28;20034;-94
2023/06/12 08:25:55;;;;;;;10.77;5.68;;;;;;;23.93;52.53;98880.84;4991213;28;20543;-92
2023/06/12 08:28:20;;;;;;;8.43;5.88;;;;;;;23.85;52.67;98887.41;5010963;28;20036;-94
2023/06/12 08:30:52;;;;;;;7.35;5.47;;;;;;;23.85;52.05;98884.66;4994516;28;20037;-94
2023/06/12 08:33:18;;;;;;;10.77;4.40;;;;;;;23.89;52.40;98897.28;4995432;28;20184;-95
2023/06/12 08:35:50;;;;;;;7.93;4.65;;;;;;;24.22;52.19;98906.81;5019153;28;20037;-95
2023/06/12 08:38:18;;;;;;;7.90;4.60;;;;;;;24.06;52.21;98881.41;5016722;28;20037;-95
2023/06/12 08:40:45;;;;;;;9.75;4.97;;;;;;;24.03;52.51;98887.66;4992021;28;20500;-95
2023/06/12 08:43:21;;;;;;;11.25;5.68;;;;;;;23.90;52.74;98868.59;4994137;28;20038;-94
2023/06/12 08:49:26;;;;;;;6.88;4.57;;;;;;;24.20;52.00;98867.88;4974664;28;20461;-88
2023/06/12 08:51:54;;;;;;;8.68;5.20;;;;;;;24.24;51.66;98876.16;5026946;28;20047;-88
2023/06/12 08:54:20;;;;;;;7.07;4.72;;;;;;;24.17;51.98;98872.13;5019144;28;20029;-88
2023/06/12 08:56:46;;;;;;;8.18;4.82;;;;;;;24.06;51.64;98873.16;5013116;28;20025;-88
2023/06/12 08:59:22;;;;;;;7.35;5.35;;;;;;;24.24;51.97;98882.47;5013108;28;20025;-89
2023/06/12 09:02:47;;;;;;;11.00;4.97;;;;;;;24.15;51.26;98868.19;5028797;28;20029;-89
2023/06/12 09:05:33;;;;;;;6.78;5.38;;;;;;;24.04;51.53;98870.00;5046743;28;20459;-90
2023/06/12 09:08:02;;;;;;;10.05;5.88;;;;;;;23.98;52.16;98886.78;5013423;28;20033;-90
2023/06/12 09:10:28;;;;;;;9.50;5.32;;;;;;;24.12;52.05;98880.72;5011702;28;20072;-90
2023/06/12 09:12:54;;;;;;;8.13;5.15;;;;;;;24.24;52.08;98878.91;5014729;28;20423;-87
2023/06/12 09:16:17;;;;;;;6.82;4.75;;;;;;;24.13;52.65;98870.50;5022110;28;20028;-89
2023/06/12 09:18:50;;;;;;;9.63;5.97;;;;;;;23.79;53.44;98854.69;4982664;28;20026;-90
2023/06/12 09:21:18;;;;;;;8.80;5.85;;;;;;;23.62;53.77;98859.91;4982173;28;20026;-88
2023/06/12 09:23:45;;;;;;;5.65;4.95;;;;;;;23.85;53.39;98860.69;4991122;28;20040;-88
2023/06/12 09:26:13;;;;;;;8.10;4.93;;;;;;;24.22;52.25;98857.28;5031704;28;20115;-90
2023/06/12 09:29:01;;;;;;;7.07;4.72;;;;;;;24.45;51.36;98864.66;5033620;28;20040;-89
2023/06/12 09:31:40;;;;;;;7.13;5.07;;;;;;;24.48;51.08;98833.63;5022329;28;20073;-90
2023/06/12 09:34:55;;;;;;;7.53;4.60;;;;;;;24.71;50.83;98856.31;4989946;28;20078;-89
2023/06/12 09:37:22;;;;;;;9.98;5.80;;;;;;;24.28;50.96;98842.03;5019042;28;20029;-89
2023/06/12 09:39:47;;;;;;;9.48;5.25;;;;;;;24.45;50.93;98817.88;4977575;28;20052;-87
2023/06/12 09:42:35;;;;;;;9.95;4.90;;;;;;;24.79;50.49;98844.22;4992187;28;20037;-88
2023/06/12 09:45:23;;;;;;;6.72;4.80;;;;;;;24.73;50.53;98825.66;5002265;28;20041;-87
2023/06/12 09:47:55;;;;;;;9.75;5.10;;;;;;;24.69;50.24;98830.34;5006414;28;20025;-88
2023/06/12 09:50:36;;;;;;;9.70;5.68;;;;;;;24.47;50.98;98834.78;5004149;28;20029;-88
2023/06/12 09:53:02;;;;;;;7.65;5.72;;;;;;;24.59;50.44;98840.06;5005376;28;20036;-90
2023/06/12 09:55:28;;;;;;;6.00;5.00;;;;;;;24.57;50.36;98823.13;4999795;28;20507;-90
2023/06/12 09:57:53;;;;;;;7.40;5.20;;;;;;;24.76;50.90;98864.25;5028496;28;20125;-89
2023/06/12 10:00:20;;;;;;;7.63;4.95;;;;;;;24.90;50.08;98862.81;5019177;28;20434;-88
2023/06/12 10:02:51;;;;;;;9.63;4.88;;;;;;;24.78;49.60;98833.59;5018604;28;20028;-89
2023/06/12 10:05:20;;;;;;;8.07;5.15;;;;;;;24.73;50.48;98837.47;5030243;28;20036;-91
2023/06/12 10:07:52;;;;;;;7.63;5.72;;;;;;;24.91;49.94;98848.69;5015626;28;20060;-88
2023/06/12 10:10:17;;;;;;;;;;;;;;;25.38;49.28;98863.72;5011856;28;20032;-91
2023/06/12 10:12:43;;;;;;;8.13;6.40;;;;;;;25.36;48.38;98838.50;5026430;28;19913;-89
2023/06/12 10:15:09;;;;;;;10.13;5.20;;;;;;;25.30;48.81;98842.78;5007420;28;20057;-91
2023/06/12 10:17:51;;;;;;;8.52;5.03;;;;;;;25.43;47.56;98832.25;5028117;28;20028;-91
2023/06/12 10:20:18;;;;;;;6.65;5.35;;;;;;;25.33;48.40;98853.03;5043285;28;20025;-91
2023/06/12 10:30:12;;;;;;;7.38;4.63;;;;;;;25.78;47.28;98855.75;5076007;28;20116;-88
2023/06/12 10:36:23;;;;;;;7.55;5.88;;;;;;;25.85;47.25;98838.47;5068076;28;20094;-95
2023/06/12 10:41:57;;;;;;;10.38;4.90;;;;;;;25.95;46.44;98829.50;5047341;28;20056;-96
2023/06/12 10:45:15;;;;;;;6.90;4.80;;;;;;;25.83;46.39;98808.50;5019534;28;20043;-95
2023/06/12 10:47:44;;;;;;;9.88;5.72;;;;;;;26.12;45.43;98839.03;5033772;28;20053;-96
2023/06/12 10:50:15;;;;;;;8.77;5.18;;;;;;;25.93;46.49;98810.56;5023711;28;20036;-95
2023/06/12 10:53:00;;;;;;;9.38;5.35;;;;;;;25.70;47.05;98799.75;5023035;28;20403;-94
2023/06/12 10:55:42;;;;;;;6.95;4.55;;;;;;;25.80;46.55;98831.34;5051192;28;20043;-95
2023/06/12 10:58:25;;;;;;;;;;;;;;;25.78;46.85;98828.97;5048753;28;20024;-94
2023/06/12 11:00:52;;;;;;;34.10;22.65;;;;;;;25.68;47.39;98806.84;5052358;28;20298;-94
2023/06/12 11:03:26;;;;;;;15.23;10.77;;;;;;;25.55;47.27;98782.34;5039293;28;20482;-94
2023/06/12 11:05:56;;;;;;;5.85;4.40;;;;;;;25.61;46.78;98807.59;5071176;28;20035;-95
2023/06/12 11:09:14;;;;;;;6.63;4.93;;;;;;;25.55;46.63;98792.59;5038754;28;20024;-94
2023/06/12 11:12:01;;;;;;;8.02;4.50;;;;;;;25.75;46.37;98812.41;5023613;28;20034;-95
2023/06/12 11:14:27;;;;;;;7.80;4.88;;;;;;;25.78;46.38;98817.16;4979417;28;20087;-93
2023/06/12 11:16:58;;;;;;;7.80;5.28;;;;;;;25.67;46.42;98808.81;4978242;28;20423;-94
2023/06/12 11:19:27;;;;;;;5.95;4.97;;;;;;;25.68;46.36;98813.16;4997314;28;20039;-94
2023/06/12 11:21:56;;;;;;;6.13;4.95;;;;;;;25.83;46.07;98797.47;5000951;28;20091;-94
2023/06/12 11:24:26;;;;;;;7.25;4.90;;;;;;;25.88;45.80;98801.81;4995593;28;20100;-93
2023/06/12 11:26:53;;;;;;;6.50;4.95;;;;;;;25.99;45.34;98797.22;4992508;28;20037;-94
2023/06/12 11:29:21;;;;;;;9.73;4.78;;;;;;;26.13;44.43;98807.53;4990822;28;20468;-94
2023/06/12 11:31:50;;;;;;;7.80;4.15;;;;;;;26.15;44.30;98807.94;4983377;28;20061;-95
2023/06/12 11:34:43;;;;;;;8.52;4.50;;;;;;;26.11;44.09;98804.38;5002346;28;20046;-95
2023/06/12 11:37:19;;;;;;;9.02;4.75;;;;;;;26.12;45.26;98816.97;4954463;29;20039;-94
2023/06/12 11:39:56;;;;;;;;;;;;;;;;;;;;;
2023/06/12 11:42:25;;;;;;;6.05;4.25;;;;;;;26.13;44.15;98794.53;4917608;29;20098;-94
2023/06/12 11:44:56;;;;;;;5.38;4.03;;;;;;;26.18;44.13;98782.31;4910915;29;20063;-94
2023/06/12 11:47:22;;;;;;;9.68;5.10;;;;;;;26.29;43.52;98785.09;4951073;29;20039;-94
2023/06/12 11:50:00;;;;;;;;;;;;;;;;;;;;;
2023/06/12 11:52:26;;;;;;;8.88;4.30;;;;;;;26.46;43.28;98775.31;4949866;29;20099;-95
2023/06/12 11:55:15;;;;;;;4.97;3.95;;;;;;;26.51;42.41;98784.00;4946047;29;20193;-96
2023/06/12 11:57:48;;;;;;;7.60;5.00;;;;;;;26.49;42.96;98788.34;4927318;29;20529;-88
2023/06/12 12:03:37;;;;;;;8.52;4.50;;;;;;;26.56;43.23;98802.16;4934306;29;20040;-88
2023/06/12 12:06:08;;;;;;;10.35;4.32;;;;;;;26.46;44.04;98784.41;4927631;29;20048;-88
2023/06/12 12:16:29;;;;;;;8.38;4.18;;;;;;;26.67;42.38;98777.38;4850318;29;20046;-88
2023/06/12 12:25:50;;;;;;;4.70;3.88;;;;;;;27.02;41.16;98787.69;4817366;29;20039;-88
2023/06/12 12:36:01;;;;;;;6.68;4.22;;;;;;;27.09;41.94;98773.88;4888500;29;20036;-90
2023/06/12 12:38:29;;;;;;;6.05;4.32;;;;;;;27.26;41.99;98799.94;4899411;29;20072;-87
2023/06/12 12:40:59;;;;;;;8.07;4.22;;;;;;;27.25;42.28;98779.03;4912194;29;20482;-87